sensor_id;sensor_type;location;lat;lon;timestamp;temperature;humidity
4056;DHT22;2043;52.184;8.690;2023-11-19T00:02:16;8.40;99.90
4056;DHT22;2043;52.184;8.690;2023-11-19T00:04:43;8.40;99.90
4056;DHT22;2043;52.184;8.690;2023-11-19T00:07:10;8.50;99.90
4056;DHT22;2043;52.184;8.690;2023-11-19T00:09:39;8.50;99.90
4056;DHT22;2043;52.184;8.690;2023-11-19T00:12:06;8.50;99.90
4056;DHT22;2043;52.184;8.690;2023-11-19T00:14:34;8.60;99.90
4056;DHT22;2043;52.184;8.690;2023-11-19T00:24:30;8.80;99.90
4056;DHT22;2043;52.184;8.690;2023-11-19T00:26:57;8.80;99.90
4056;DHT22;2043;52.184;8.690;2023-11-19T00:31:51;8.80;99.90
4056;DHT22;2043;52.184;8.690;2023-11-19T00:39:16;8.80;99.90
4056;DHT22;2043;52.184;8.690;2023-11-19T00:41:42;8.90;99.90
4056;DHT22;2043;52.184;8.690;2023-11-19T00:44:09;8.90;99.90
4056;DHT22;2043;52.184;8.690;2023-11-19T00:49:03;9.00;99.90
4056;DHT22;2043;52.184;8.690;2023-11-19T00:51:30;8.90;99.90
4056;DHT22;2043;52.184;8.690;2023-11-19T00:53:58;9.00;99.90
4056;DHT22;2043;52.184;8.690;2023-11-19T00:56:26;9.00;99.90
4056;DHT22;2043;52.184;8.690;2023-11-19T00:58:52;9.00;99.90
4056;DHT22;2043;52.184;8.690;2023-11-19T01:01:19;9.20;99.90
4056;DHT22;2043;52.184;8.690;2023-11-19T01:06:13;9.10;99.90
4056;DHT22;2043;52.184;8.690;2023-11-19T01:08:42;9.20;99.90
4056;DHT22;2043;52.184;8.690;2023-11-19T01:11:20;9.20;99.90
4056;DHT22;2043;52.184;8.690;2023-11-19T01:13:48;9.20;99.90
4056;DHT22;2043;52.184;8.690;2023-11-19T01:16:15;9.20;99.90
4056;DHT22;2043;52.184;8.690;2023-11-19T01:18:41;9.20;99.90
4056;DHT22;2043;52.184;8.690;2023-11-19T01:21:08;9.30;99.90
4056;DHT22;2043;52.184;8.690;2023-11-19T01:23:35;9.30;99.90
4056;DHT22;2043;52.184;8.690;2023-11-19T01:26:03;9.30;99.90
4056;DHT22;2043;52.184;8.690;2023-11-19T01:28:32;9.30;99.90
4056;DHT22;2043;52.184;8.690;2023-11-19T01:33:26;9.30;99.90
4056;DHT22;2043;52.184;8.690;2023-11-19T01:35:53;9.30;99.90
4056;DHT22;2043;52.184;8.690;2023-11-19T01:38:20;9.50;99.90
4056;DHT22;2043;52.184;8.690;2023-11-19T01:40:47;9.50;99.90
4056;DHT22;2043;52.184;8.690;2023-11-19T01:43:34;9.50;99.90
4056;DHT22;2043;52.184;8.690;2023-11-19T01:46:02;9.50;99.90
4056;DHT22;2043;52.184;8.690;2023-11-19T01:48:38;9.60;99.90
4056;DHT22;2043;52.184;8.690;2023-11-19T01:51:08;9.70;99.90
4056;DHT22;2043;52.184;8.690;2023-11-19T01:53:37;9.70;99.90
4056;DHT22;2043;52.184;8.690;2023-11-19T01:56:06;9.70;99.90
4056;DHT22;2043;52.184;8.690;2023-11-19T01:58:36;9.80;99.90
4056;DHT22;2043;52.184;8.690;2023-11-19T02:01:05;9.80;99.90
4056;DHT22;2043;52.184;8.690;2023-11-19T02:03:32;9.80;99.90
4056;DHT22;2043;52.184;8.690;2023-11-19T02:06:00;9.80;99.90
4056;DHT22;2043;52.184;8.690;2023-11-19T02:10:54;9.90;99.90
4056;DHT22;2043;52.184;8.690;2023-11-19T02:13:25;9.90;99.90
4056;DHT22;2043;52.184;8.690;2023-11-19T02:15:52;9.90;99.90
4056;DHT22;2043;52.184;8.690;2023-11-19T02:18:21;9.90;99.90
4056;DHT22;2043;52.184;8.690;2023-11-19T02:20:50;9.90;99.90
4056;DHT22;2043;52.184;8.690;2023-11-19T02:23:18;9.90;99.90
4056;DHT22;2043;52.184;8.690;2023-11-19T02:26:35;9.90;99.90
4056;DHT22;2043;52.184;8.690;2023-11-19T02:28:41;10.00;99.90
4056;DHT22;2043;52.184;8.690;2023-11-19T02:31:10;10.00;99.90
4056;DHT22;2043;52.184;8.690;2023-11-19T02:33:38;10.00;99.90
4056;DHT22;2043;52.184;8.690;2023-11-19T02:36:06;10.00;99.90
4056;DHT22;2043;52.184;8.690;2023-11-19T02:38:34;10.00;99.90
4056;DHT22;2043;52.184;8.690;2023-11-19T02:41:06;10.10;99.90
4056;DHT22;2043;52.184;8.690;2023-11-19T02:43:34;10.10;99.90
4056;DHT22;2043;52.184;8.690;2023-11-19T02:46:02;10.20;99.90
4056;DHT22;2043;52.184;8.690;2023-11-19T02:51:10;10.30;99.90
4056;DHT22;2043;52.184;8.690;2023-11-19T02:53:37;10.30;99.90
4056;DHT22;2043;52.184;8.690;2023-11-19T02:56:04;10.30;99.90
4056;DHT22;2043;52.184;8.690;2023-11-19T02:58:53;10.40;99.90
4056;DHT22;2043;52.184;8.690;2023-11-19T03:01:26;10.40;99.90
4056;DHT22;2043;52.184;8.690;2023-11-19T03:03:58;10.50;99.90
4056;DHT22;2043;52.184;8.690;2023-11-19T03:06:26;10.60;99.90
4056;DHT22;2043;52.184;8.690;2023-11-19T03:08:55;10.70;99.90
4056;DHT22;2043;52.184;8.690;2023-11-19T03:13:49;10.80;99.90
4056;DHT22;2043;52.184;8.690;2023-11-19T03:16:15;10.90;99.90
4056;DHT22;2043;52.184;8.690;2023-11-19T03:18:43;10.90;99.90
4056;DHT22;2043;52.184;8.690;2023-11-19T03:21:10;11.00;99.90
4056;DHT22;2043;52.184;8.690;2023-11-19T03:23:37;11.10;99.90
4056;DHT22;2043;52.184;8.690;2023-11-19T03:26:04;11.20;99.90
4056;DHT22;2043;52.184;8.690;2023-11-19T03:28:32;11.20;99.90
4056;DHT22;2043;52.184;8.690;2023-11-19T03:33:27;11.30;99.90
4056;DHT22;2043;52.184;8.690;2023-11-19T03:35:56;11.30;99.90
4056;DHT22;2043;52.184;8.690;2023-11-19T03:38:24;11.30;99.90
4056;DHT22;2043;52.184;8.690;2023-11-19T03:40:51;11.40;99.90
4056;DHT22;2043;52.184;8.690;2023-11-19T03:43:18;11.40;99.90
4056;DHT22;2043;52.184;8.690;2023-11-19T03:45:48;11.40;99.90
4056;DHT22;2043;52.184;8.690;2023-11-19T03:48:15;11.40;99.90
4056;DHT22;2043;52.184;8.690;2023-11-19T03:50:43;11.50;99.90
4056;DHT22;2043;52.184;8.690;2023-11-19T03:53:11;11.50;99.90
4056;DHT22;2043;52.184;8.690;2023-11-19T03:55:38;11.60;99.90
4056;DHT22;2043;52.184;8.690;2023-11-19T03:58:05;11.60;99.90
4056;DHT22;2043;52.184;8.690;2023-11-19T04:00:32;11.70;99.90
4056;DHT22;2043;52.184;8.690;2023-11-19T04:02:59;11.70;99.90
4056;DHT22;2043;52.184;8.690;2023-11-19T04:05:26;11.70;99.90
4056;DHT22;2043;52.184;8.690;2023-11-19T04:07:53;11.80;99.90
4056;DHT22;2043;52.184;8.690;2023-11-19T04:10:20;11.80;99.90
4056;DHT22;2043;52.184;8.690;2023-11-19T04:15:16;11.80;99.90
4056;DHT22;2043;52.184;8.690;2023-11-19T04:17:43;11.80;99.90
4056;DHT22;2043;52.184;8.690;2023-11-19T04:20:11;11.80;99.90
4056;DHT22;2043;52.184;8.690;2023-11-19T04:22:40;11.90;99.90
4056;DHT22;2043;52.184;8.690;2023-11-19T04:25:07;11.80;99.90
4056;DHT22;2043;52.184;8.690;2023-11-19T04:27:35;11.90;99.90
4056;DHT22;2043;52.184;8.690;2023-11-19T04:30:02;11.90;99.90
4056;DHT22;2043;52.184;8.690;2023-11-19T04:32:30;11.90;99.90
4056;DHT22;2043;52.184;8.690;2023-11-19T04:34:57;11.90;99.90
4056;DHT22;2043;52.184;8.690;2023-11-19T04:37:23;11.90;99.90
4056;DHT22;2043;52.184;8.690;2023-11-19T04:39:51;11.90;99.90
4056;DHT22;2043;52.184;8.690;2023-11-19T04:42:18;12.00;99.90
4056;DHT22;2043;52.184;8.690;2023-11-19T04:44:44;11.90;99.90
4056;DHT22;2043;52.184;8.690;2023-11-19T04:47:11;11.90;99.90
4056;DHT22;2043;52.184;8.690;2023-11-19T04:49:41;11.90;99.90
4056;DHT22;2043;52.184;8.690;2023-11-19T04:52:11;12.00;99.90
4056;DHT22;2043;52.184;8.690;2023-11-19T04:54:42;11.90;99.90
4056;DHT22;2043;52.184;8.690;2023-11-19T04:57:10;12.00;99.90
4056;DHT22;2043;52.184;8.690;2023-11-19T04:59:40;12.00;99.90
4056;DHT22;2043;52.184;8.690;2023-11-19T05:02:08;12.00;99.90
4056;DHT22;2043;52.184;8.690;2023-11-19T05:04:35;12.00;99.90
4056;DHT22;2043;52.184;8.690;2023-11-19T05:07:02;12.00;99.90
4056;DHT22;2043;52.184;8.690;2023-11-19T05:09:30;12.00;99.90
4056;DHT22;2043;52.184;8.690;2023-11-19T05:11:57;12.00;99.90
4056;DHT22;2043;52.184;8.690;2023-11-19T05:14:23;12.00;99.90
4056;DHT22;2043;52.184;8.690;2023-11-19T05:16:51;12.00;99.90
4056;DHT22;2043;52.184;8.690;2023-11-19T05:19:18;12.00;99.90
4056;DHT22;2043;52.184;8.690;2023-11-19T05:21:47;12.00;99.90
4056;DHT22;2043;52.184;8.690;2023-11-19T05:24:17;12.00;99.90
4056;DHT22;2043;52.184;8.690;2023-11-19T05:26:44;12.00;99.90
4056;DHT22;2043;52.184;8.690;2023-11-19T05:29:11;12.00;99.90
4056;DHT22;2043;52.184;8.690;2023-11-19T05:31:38;12.00;99.90
4056;DHT22;2043;52.184;8.690;2023-11-19T05:34:06;12.00;99.90
4056;DHT22;2043;52.184;8.690;2023-11-19T05:36:34;12.00;99.90
4056;DHT22;2043;52.184;8.690;2023-11-19T05:39:00;12.00;99.90
4056;DHT22;2043;52.184;8.690;2023-11-19T05:41:27;12.00;99.90
4056;DHT22;2043;52.184;8.690;2023-11-19T05:43:54;12.00;99.90
4056;DHT22;2043;52.184;8.690;2023-11-19T05:46:21;12.00;99.90
4056;DHT22;2043;52.184;8.690;2023-11-19T05:48:48;11.90;99.90
4056;DHT22;2043;52.184;8.690;2023-11-19T05:51:15;11.90;99.90
4056;DHT22;2043;52.184;8.690;2023-11-19T05:53:42;11.80;99.90
4056;DHT22;2043;52.184;8.690;2023-11-19T05:56:09;11.90;99.90
4056;DHT22;2043;52.184;8.690;2023-11-19T05:58:37;11.80;99.90
4056;DHT22;2043;52.184;8.690;2023-11-19T06:01:05;11.80;99.90
4056;DHT22;2043;52.184;8.690;2023-11-19T06:03:34;11.80;99.90
4056;DHT22;2043;52.184;8.690;2023-11-19T06:06:01;11.70;99.90
4056;DHT22;2043;52.184;8.690;2023-11-19T06:08:28;11.80;99.90
4056;DHT22;2043;52.184;8.690;2023-11-19T06:10:56;11.80;99.90
4056;DHT22;2043;52.184;8.690;2023-11-19T06:13:23;11.90;99.90
4056;DHT22;2043;52.184;8.690;2023-11-19T06:15:51;11.80;99.90
4056;DHT22;2043;52.184;8.690;2023-11-19T06:18:18;11.80;99.90
4056;DHT22;2043;52.184;8.690;2023-11-19T06:20:47;11.70;99.90
4056;DHT22;2043;52.184;8.690;2023-11-19T06:23:14;11.70;99.90
4056;DHT22;2043;52.184;8.690;2023-11-19T06:25:40;11.60;99.90
4056;DHT22;2043;52.184;8.690;2023-11-19T06:28:07;11.50;99.90
4056;DHT22;2043;52.184;8.690;2023-11-19T06:30:34;11.50;99.90
4056;DHT22;2043;52.184;8.690;2023-11-19T06:35:30;11.50;99.90
4056;DHT22;2043;52.184;8.690;2023-11-19T06:38:03;11.40;99.90
4056;DHT22;2043;52.184;8.690;2023-11-19T06:40:33;11.40;99.90
4056;DHT22;2043;52.184;8.690;2023-11-19T06:43:02;11.40;99.90
4056;DHT22;2043;52.184;8.690;2023-11-19T06:45:30;11.40;99.90
4056;DHT22;2043;52.184;8.690;2023-11-19T06:47:57;11.40;99.90
4056;DHT22;2043;52.184;8.690;2023-11-19T06:50:25;11.30;99.90
4056;DHT22;2043;52.184;8.690;2023-11-19T06:52:52;11.40;99.90
4056;DHT22;2043;52.184;8.690;2023-11-19T06:55:18;11.40;99.90
4056;DHT22;2043;52.184;8.690;2023-11-19T06:57:45;11.50;99.90
4056;DHT22;2043;52.184;8.690;2023-11-19T07:00:12;11.50;99.90
4056;DHT22;2043;52.184;8.690;2023-11-19T07:05:07;11.50;99.90
4056;DHT22;2043;52.184;8.690;2023-11-19T07:07:34;11.50;99.90
4056;DHT22;2043;52.184;8.690;2023-11-19T07:10:02;11.40;99.90
4056;DHT22;2043;52.184;8.690;2023-11-19T07:12:30;11.50;99.90
4056;DHT22;2043;52.184;8.690;2023-11-19T07:14:57;11.50;99.90
4056;DHT22;2043;52.184;8.690;2023-11-19T07:17:24;11.50;99.90
4056;DHT22;2043;52.184;8.690;2023-11-19T07:19:51;11.40;99.90
4056;DHT22;2043;52.184;8.690;2023-11-19T07:22:18;11.40;99.90
4056;DHT22;2043;52.184;8.690;2023-11-19T07:24:45;11.40;99.90
4056;DHT22;2043;52.184;8.690;2023-11-19T07:29:40;11.40;99.90
4056;DHT22;2043;52.184;8.690;2023-11-19T07:32:07;11.40;99.90
4056;DHT22;2043;52.184;8.690;2023-11-19T07:34:34;11.40;99.90
4056;DHT22;2043;52.184;8.690;2023-11-19T07:37:01;11.40;99.90
4056;DHT22;2043;52.184;8.690;2023-11-19T07:39:29;11.50;99.90
4056;DHT22;2043;52.184;8.690;2023-11-19T07:41:56;11.50;99.90
4056;DHT22;2043;52.184;8.690;2023-11-19T07:44:23;11.50;99.90
4056;DHT22;2043;52.184;8.690;2023-11-19T07:46:50;11.40;99.90
4056;DHT22;2043;52.184;8.690;2023-11-19T07:49:17;11.40;99.90
4056;DHT22;2043;52.184;8.690;2023-11-19T07:51:44;11.40;99.90
4056;DHT22;2043;52.184;8.690;2023-11-19T07:54:10;11.40;99.90
4056;DHT22;2043;52.184;8.690;2023-11-19T07:56:37;11.50;99.90
4056;DHT22;2043;52.184;8.690;2023-11-19T07:59:04;11.40;99.90
4056;DHT22;2043;52.184;8.690;2023-11-19T08:01:31;11.50;99.90
4056;DHT22;2043;52.184;8.690;2023-11-19T08:03:57;11.50;99.90
4056;DHT22;2043;52.184;8.690;2023-11-19T08:06:26;11.50;99.90
4056;DHT22;2043;52.184;8.690;2023-11-19T08:08:53;11.50;99.90
4056;DHT22;2043;52.184;8.690;2023-11-19T08:11:20;11.60;99.90
4056;DHT22;2043;52.184;8.690;2023-11-19T08:13:47;11.60;99.90
4056;DHT22;2043;52.184;8.690;2023-11-19T08:16:14;11.60;99.90
4056;DHT22;2043;52.184;8.690;2023-11-19T08:18:43;11.50;99.90
4056;DHT22;2043;52.184;8.690;2023-11-19T08:21:10;11.50;99.90
4056;DHT22;2043;52.184;8.690;2023-11-19T08:23:37;11.50;99.90
4056;DHT22;2043;52.184;8.690;2023-11-19T08:26:05;11.50;99.90
4056;DHT22;2043;52.184;8.690;2023-11-19T08:28:33;11.50;99.90
4056;DHT22;2043;52.184;8.690;2023-11-19T08:31:02;11.40;99.90
4056;DHT22;2043;52.184;8.690;2023-11-19T08:33:31;11.50;99.90
4056;DHT22;2043;52.184;8.690;2023-11-19T08:35:58;11.50;99.90
4056;DHT22;2043;52.184;8.690;2023-11-19T08:38:25;11.50;99.90
4056;DHT22;2043;52.184;8.690;2023-11-19T08:40:55;11.50;99.90
4056;DHT22;2043;52.184;8.690;2023-11-19T08:43:26;11.50;99.90
4056;DHT22;2043;52.184;8.690;2023-11-19T08:45:53;11.50;99.90
4056;DHT22;2043;52.184;8.690;2023-11-19T08:48:20;11.60;99.90
4056;DHT22;2043;52.184;8.690;2023-11-19T08:50:47;11.60;99.90
4056;DHT22;2043;52.184;8.690;2023-11-19T08:53:14;11.60;99.90
4056;DHT22;2043;52.184;8.690;2023-11-19T08:55:41;11.60;99.90
4056;DHT22;2043;52.184;8.690;2023-11-19T08:58:09;11.60;99.90
4056;DHT22;2043;52.184;8.690;2023-11-19T09:00:35;11.60;99.90
4056;DHT22;2043;52.184;8.690;2023-11-19T09:03:02;11.50;99.90
4056;DHT22;2043;52.184;8.690;2023-11-19T09:05:30;11.50;99.90
4056;DHT22;2043;52.184;8.690;2023-11-19T09:07:58;11.50;99.90
4056;DHT22;2043;52.184;8.690;2023-11-19T09:10:24;11.50;99.90
4056;DHT22;2043;52.184;8.690;2023-11-19T09:12:51;11.50;99.90
4056;DHT22;2043;52.184;8.690;2023-11-19T09:15:20;11.40;99.90
4056;DHT22;2043;52.184;8.690;2023-11-19T09:20:14;11.40;99.90
4056;DHT22;2043;52.184;8.690;2023-11-19T09:22:42;11.40;99.90
4056;DHT22;2043;52.184;8.690;2023-11-19T09:25:09;11.30;99.90
4056;DHT22;2043;52.184;8.690;2023-11-19T09:27:36;11.20;99.90
4056;DHT22;2043;52.184;8.690;2023-11-19T09:30:04;11.20;99.90
4056;DHT22;2043;52.184;8.690;2023-11-19T09:32:31;11.20;99.90
4056;DHT22;2043;52.184;8.690;2023-11-19T09:34:58;11.10;99.90
4056;DHT22;2043;52.184;8.690;2023-11-19T09:37:24;11.10;99.90
4056;DHT22;2043;52.184;8.690;2023-11-19T09:39:51;11.00;99.90
4056;DHT22;2043;52.184;8.690;2023-11-19T09:42:20;11.00;99.90
4056;DHT22;2043;52.184;8.690;2023-11-19T09:44:48;11.10;99.90
4056;DHT22;2043;52.184;8.690;2023-11-19T09:47:17;11.20;99.90
4056;DHT22;2043;52.184;8.690;2023-11-19T09:49:45;11.30;99.90
4056;DHT22;2043;52.184;8.690;2023-11-19T09:54:39;11.30;99.90
4056;DHT22;2043;52.184;8.690;2023-11-19T09:57:06;11.40;99.90
4056;DHT22;2043;52.184;8.690;2023-11-19T09:59:35;11.40;99.90
4056;DHT22;2043;52.184;8.690;2023-11-19T10:02:03;11.50;99.90
4056;DHT22;2043;52.184;8.690;2023-11-19T10:04:32;11.60;99.90
4056;DHT22;2043;52.184;8.690;2023-11-19T10:07:01;11.50;99.90
4056;DHT22;2043;52.184;8.690;2023-11-19T10:09:28;11.60;99.90
4056;DHT22;2043;52.184;8.690;2023-11-19T10:11:55;11.50;99.90
4056;DHT22;2043;52.184;8.690;2023-11-19T10:14:23;11.50;99.90
4056;DHT22;2043;52.184;8.690;2023-11-19T10:16:51;11.60;99.90
4056;DHT22;2043;52.184;8.690;2023-11-19T10:19:20;11.60;99.90
4056;DHT22;2043;52.184;8.690;2023-11-19T10:21:48;11.60;99.90
4056;DHT22;2043;52.184;8.690;2023-11-19T10:24:14;11.50;99.90
4056;DHT22;2043;52.184;8.690;2023-11-19T10:26:57;11.60;99.90
4056;DHT22;2043;52.184;8.690;2023-11-19T10:29:24;12.20;99.90
4056;DHT22;2043;52.184;8.690;2023-11-19T10:31:57;12.40;99.90
4056;DHT22;2043;52.184;8.690;2023-11-19T10:34:44;12.20;99.90
4056;DHT22;2043;52.184;8.690;2023-11-19T10:37:30;12.10;99.90
4056;DHT22;2043;52.184;8.690;2023-11-19T10:39:59;12.10;99.90
4056;DHT22;2043;52.184;8.690;2023-11-19T10:42:26;12.10;99.90
4056;DHT22;2043;52.184;8.690;2023-11-19T10:44:52;12.20;99.90
4056;DHT22;2043;52.184;8.690;2023-11-19T10:47:19;12.70;99.90
4056;DHT22;2043;52.184;8.690;2023-11-19T10:50:04;13.90;99.90
4056;DHT22;2043;52.184;8.690;2023-11-19T10:52:33;14.20;99.90
4056;DHT22;2043;52.184;8.690;2023-11-19T10:55:00;13.60;99.90
4056;DHT22;2043;52.184;8.690;2023-11-19T10:57:30;13.10;99.90
4056;DHT22;2043;52.184;8.690;2023-11-19T11:00:02;12.80;99.90
4056;DHT22;2043;52.184;8.690;2023-11-19T11:02:35;12.70;99.90
4056;DHT22;2043;52.184;8.690;2023-11-19T11:05:02;12.60;99.90
4056;DHT22;2043;52.184;8.690;2023-11-19T11:07:31;12.60;99.90
4056;DHT22;2043;52.184;8.690;2023-11-19T11:10:07;12.50;99.90
4056;DHT22;2043;52.184;8.690;2023-11-19T11:12:38;12.50;99.90
4056;DHT22;2043;52.184;8.690;2023-11-19T11:15:07;12.40;99.90
4056;DHT22;2043;52.184;8.690;2023-11-19T11:17:35;12.70;99.90
4056;DHT22;2043;52.184;8.690;2023-11-19T11:20:04;12.80;99.90
4056;DHT22;2043;52.184;8.690;2023-11-19T11:22:46;12.70;99.90
4056;DHT22;2043;52.184;8.690;2023-11-19T11:25:28;12.70;99.90
4056;DHT22;2043;52.184;8.690;2023-11-19T11:28:17;12.70;99.90
4056;DHT22;2043;52.184;8.690;2023-11-19T11:33:41;12.60;99.90
4056;DHT22;2043;52.184;8.690;2023-11-19T11:36:31;12.60;99.90
4056;DHT22;2043;52.184;8.690;2023-11-19T11:39:02;12.50;99.90
4056;DHT22;2043;52.184;8.690;2023-11-19T11:41:34;12.40;99.90
4056;DHT22;2043;52.184;8.690;2023-11-19T11:44:02;12.40;99.90
4056;DHT22;2043;52.184;8.690;2023-11-19T11:49:03;12.30;99.90
4056;DHT22;2043;52.184;8.690;2023-11-19T11:57:07;12.10;99.90
4056;DHT22;2043;52.184;8.690;2023-11-19T11:59:48;12.10;99.90
4056;DHT22;2043;52.184;8.690;2023-11-19T12:02:17;12.10;99.90
4056;DHT22;2043;52.184;8.690;2023-11-19T12:04:51;12.10;99.90
4056;DHT22;2043;52.184;8.690;2023-11-19T12:07:21;12.00;99.90
4056;DHT22;2043;52.184;8.690;2023-11-19T12:10:06;12.20;99.90
4056;DHT22;2043;52.184;8.690;2023-11-19T12:12:40;12.50;99.90
4056;DHT22;2043;52.184;8.690;2023-11-19T12:15:09;12.60;99.90
4056;DHT22;2043;52.184;8.690;2023-11-19T12:17:46;12.70;99.90
4056;DHT22;2043;52.184;8.690;2023-11-19T12:20:17;12.80;99.90
4056;DHT22;2043;52.184;8.690;2023-11-19T12:23:04;12.70;99.90
4056;DHT22;2043;52.184;8.690;2023-11-19T12:25:34;12.50;99.90
4056;DHT22;2043;52.184;8.690;2023-11-19T12:28:01;12.40;99.90
4056;DHT22;2043;52.184;8.690;2023-11-19T12:30:31;12.30;99.90
4056;DHT22;2043;52.184;8.690;2023-11-19T12:32:58;12.30;99.90
4056;DHT22;2043;52.184;8.690;2023-11-19T12:35:25;12.30;99.90
4056;DHT22;2043;52.184;8.690;2023-11-19T12:37:53;12.30;99.90
4056;DHT22;2043;52.184;8.690;2023-11-19T12:42:48;12.10;99.90
4056;DHT22;2043;52.184;8.690;2023-11-19T12:45:16;12.00;99.90
4056;DHT22;2043;52.184;8.690;2023-11-19T12:47:43;11.90;99.90
4056;DHT22;2043;52.184;8.690;2023-11-19T12:50:11;11.90;99.90
4056;DHT22;2043;52.184;8.690;2023-11-19T12:52:38;11.90;99.90
4056;DHT22;2043;52.184;8.690;2023-11-19T12:55:23;11.80;99.90
4056;DHT22;2043;52.184;8.690;2023-11-19T12:57:54;11.90;99.90
4056;DHT22;2043;52.184;8.690;2023-11-19T13:00:23;11.80;99.90
4056;DHT22;2043;52.184;8.690;2023-11-19T13:02:50;11.80;99.90
4056;DHT22;2043;52.184;8.690;2023-11-19T13:08:05;12.00;99.90
4056;DHT22;2043;52.184;8.690;2023-11-19T13:10:49;11.90;99.90
4056;DHT22;2043;52.184;8.690;2023-11-19T13:13:20;11.90;99.90
4056;DHT22;2043;52.184;8.690;2023-11-19T13:15:47;11.90;99.90
4056;DHT22;2043;52.184;8.690;2023-11-19T13:18:16;12.10;99.90
4056;DHT22;2043;52.184;8.690;2023-11-19T13:20:43;12.30;99.90
4056;DHT22;2043;52.184;8.690;2023-11-19T13:23:10;12.50;99.90
4056;DHT22;2043;52.184;8.690;2023-11-19T13:25:37;12.40;99.90
4056;DHT22;2043;52.184;8.690;2023-11-19T13:28:03;12.40;99.90
4056;DHT22;2043;52.184;8.690;2023-11-19T13:30:32;12.30;99.90
4056;DHT22;2043;52.184;8.690;2023-11-19T13:32:59;12.30;99.90
4056;DHT22;2043;52.184;8.690;2023-11-19T13:35:27;12.30;99.90
4056;DHT22;2043;52.184;8.690;2023-11-19T13:37:54;12.20;99.90
4056;DHT22;2043;52.184;8.690;2023-11-19T13:40:21;12.20;99.90
4056;DHT22;2043;52.184;8.690;2023-11-19T13:42:49;12.20;99.90
4056;DHT22;2043;52.184;8.690;2023-11-19T13:45:16;12.10;99.90
4056;DHT22;2043;52.184;8.690;2023-11-19T13:47:45;12.20;99.90
4056;DHT22;2043;52.184;8.690;2023-11-19T13:50:14;12.30;99.90
4056;DHT22;2043;52.184;8.690;2023-11-19T13:52:43;12.50;99.90
4056;DHT22;2043;52.184;8.690;2023-11-19T13:55:12;12.60;99.90
4056;DHT22;2043;52.184;8.690;2023-11-19T13:57:40;12.50;99.90
4056;DHT22;2043;52.184;8.690;2023-11-19T14:00:09;12.50;99.90
4056;DHT22;2043;52.184;8.690;2023-11-19T14:02:40;12.60;99.90
4056;DHT22;2043;52.184;8.690;2023-11-19T14:05:08;12.80;99.90
4056;DHT22;2043;52.184;8.690;2023-11-19T14:10:02;12.80;99.90
4056;DHT22;2043;52.184;8.690;2023-11-19T14:12:29;12.80;99.90
4056;DHT22;2043;52.184;8.690;2023-11-19T14:14:57;12.70;99.90
4056;DHT22;2043;52.184;8.690;2023-11-19T14:17:24;12.60;99.90
4056;DHT22;2043;52.184;8.690;2023-11-19T14:19:54;12.60;99.90
4056;DHT22;2043;52.184;8.690;2023-11-19T14:22:21;12.60;99.90
4056;DHT22;2043;52.184;8.690;2023-11-19T14:24:47;12.60;99.90
4056;DHT22;2043;52.184;8.690;2023-11-19T14:27:14;12.50;99.90
4056;DHT22;2043;52.184;8.690;2023-11-19T14:29:41;12.50;99.90
4056;DHT22;2043;52.184;8.690;2023-11-19T14:32:08;12.50;99.90
4056;DHT22;2043;52.184;8.690;2023-11-19T14:34:35;12.50;99.90
4056;DHT22;2043;52.184;8.690;2023-11-19T14:37:03;12.50;99.90
4056;DHT22;2043;52.184;8.690;2023-11-19T14:39:30;12.50;99.90
4056;DHT22;2043;52.184;8.690;2023-11-19T14:41:58;12.50;99.90
4056;DHT22;2043;52.184;8.690;2023-11-19T14:44:27;12.50;99.90
4056;DHT22;2043;52.184;8.690;2023-11-19T14:46:55;12.40;99.90
4056;DHT22;2043;52.184;8.690;2023-11-19T14:49:22;12.40;99.90
4056;DHT22;2043;52.184;8.690;2023-11-19T14:51:51;12.30;99.90
4056;DHT22;2043;52.184;8.690;2023-11-19T14:54:17;12.30;99.90
4056;DHT22;2043;52.184;8.690;2023-11-19T14:56:44;12.30;99.90
4056;DHT22;2043;52.184;8.690;2023-11-19T14:59:11;12.20;99.90
4056;DHT22;2043;52.184;8.690;2023-11-19T15:04:07;12.10;99.90
4056;DHT22;2043;52.184;8.690;2023-11-19T15:06:34;12.00;99.90
4056;DHT22;2043;52.184;8.690;2023-11-19T15:09:01;12.00;99.90
4056;DHT22;2043;52.184;8.690;2023-11-19T15:13:56;12.10;99.90
4056;DHT22;2043;52.184;8.690;2023-11-19T15:16:23;12.10;99.90
4056;DHT22;2043;52.184;8.690;2023-11-19T15:18:58;12.00;99.90
4056;DHT22;2043;52.184;8.690;2023-11-19T15:21:31;12.10;99.90
4056;DHT22;2043;52.184;8.690;2023-11-19T15:23:59;12.00;99.90
4056;DHT22;2043;52.184;8.690;2023-11-19T15:26:26;12.00;99.90
4056;DHT22;2043;52.184;8.690;2023-11-19T15:31:24;11.90;99.90
4056;DHT22;2043;52.184;8.690;2023-11-19T15:33:51;11.90;99.90
4056;DHT22;2043;52.184;8.690;2023-11-19T15:36:18;11.70;99.90
4056;DHT22;2043;52.184;8.690;2023-11-19T15:38:45;11.70;99.90
4056;DHT22;2043;52.184;8.690;2023-11-19T15:41:15;11.70;99.90
4056;DHT22;2043;52.184;8.690;2023-11-19T15:43:42;11.70;99.90
4056;DHT22;2043;52.184;8.690;2023-11-19T15:46:09;11.60;99.90
4056;DHT22;2043;52.184;8.690;2023-11-19T15:48:37;11.60;99.90
4056;DHT22;2043;52.184;8.690;2023-11-19T15:51:04;11.70;99.90
4056;DHT22;2043;52.184;8.690;2023-11-19T15:55:59;11.60;99.90
4056;DHT22;2043;52.184;8.690;2023-11-19T15:58:26;11.60;99.90
4056;DHT22;2043;52.184;8.690;2023-11-19T16:00:53;11.70;99.90
4056;DHT22;2043;52.184;8.690;2023-11-19T16:03:20;11.70;99.90
4056;DHT22;2043;52.184;8.690;2023-11-19T16:05:47;11.80;99.90
4056;DHT22;2043;52.184;8.690;2023-11-19T16:08:29;11.80;99.90
4056;DHT22;2043;52.184;8.690;2023-11-19T16:10:56;11.80;99.90
4056;DHT22;2043;52.184;8.690;2023-11-19T16:13:24;11.80;99.90
4056;DHT22;2043;52.184;8.690;2023-11-19T16:15:51;11.80;99.90
4056;DHT22;2043;52.184;8.690;2023-11-19T16:18:18;11.80;99.90
4056;DHT22;2043;52.184;8.690;2023-11-19T16:23:12;11.90;99.90
4056;DHT22;2043;52.184;8.690;2023-11-19T16:25:39;11.90;99.90
4056;DHT22;2043;52.184;8.690;2023-11-19T16:28:06;12.00;99.90
4056;DHT22;2043;52.184;8.690;2023-11-19T16:30:36;12.00;99.90
4056;DHT22;2043;52.184;8.690;2023-11-19T16:33:02;11.90;99.90
4056;DHT22;2043;52.184;8.690;2023-11-19T16:35:32;11.90;99.90
4056;DHT22;2043;52.184;8.690;2023-11-19T16:37:59;11.90;99.90
4056;DHT22;2043;52.184;8.690;2023-11-19T16:42:53;11.70;99.90
4056;DHT22;2043;52.184;8.690;2023-11-19T16:45:21;11.60;99.90
4056;DHT22;2043;52.184;8.690;2023-11-19T16:47:48;11.70;99.90
4056;DHT22;2043;52.184;8.690;2023-11-19T16:50:15;11.60;99.90
4056;DHT22;2043;52.184;8.690;2023-11-19T16:55:13;11.50;99.90
4056;DHT22;2043;52.184;8.690;2023-11-19T16:57:42;11.50;99.90
4056;DHT22;2043;52.184;8.690;2023-11-19T17:00:12;11.50;99.90
4056;DHT22;2043;52.184;8.690;2023-11-19T17:02:40;11.50;99.90
4056;DHT22;2043;52.184;8.690;2023-11-19T17:05:11;11.50;99.90
4056;DHT22;2043;52.184;8.690;2023-11-19T17:07:40;11.50;99.90
4056;DHT22;2043;52.184;8.690;2023-11-19T17:10:07;11.50;99.90
4056;DHT22;2043;52.184;8.690;2023-11-19T17:15:02;11.50;99.90
4056;DHT22;2043;52.184;8.690;2023-11-19T17:17:34;11.50;99.90
4056;DHT22;2043;52.184;8.690;2023-11-19T17:20:06;11.50;99.90
4056;DHT22;2043;52.184;8.690;2023-11-19T17:22:37;11.50;99.90
4056;DHT22;2043;52.184;8.690;2023-11-19T17:25:05;11.50;99.90
4056;DHT22;2043;52.184;8.690;2023-11-19T17:27:33;11.50;99.90
4056;DHT22;2043;52.184;8.690;2023-11-19T17:37:25;11.40;99.90
4056;DHT22;2043;52.184;8.690;2023-11-19T17:39:52;11.50;99.90
4056;DHT22;2043;52.184;8.690;2023-11-19T17:42:19;11.50;99.90
4056;DHT22;2043;52.184;8.690;2023-11-19T17:44:46;11.50;99.90
4056;DHT22;2043;52.184;8.690;2023-11-19T17:47:12;11.50;99.90